createdAt,value
2018-09-26T00:00:31.999Z,99.90
2018-09-26T00:03:03.877Z,99.90
2018-09-26T00:05:33.139Z,99.90
2018-09-26T00:08:02.436Z,99.90
2018-09-26T00:10:31.033Z,99.90
2018-09-26T00:12:59.628Z,99.90
2018-09-26T00:15:28.187Z,99.90
2018-09-26T00:17:56.783Z,99.90
2018-09-26T00:20:25.375Z,99.90
2018-09-26T00:22:53.964Z,99.90
2018-09-26T00:25:22.577Z,99.90
2018-09-26T00:27:51.179Z,99.90
2018-09-26T00:30:19.809Z,99.90
2018-09-26T00:32:48.404Z,99.90
2018-09-26T00:35:17.023Z,99.90
2018-09-26T00:37:45.614Z,99.90
2018-09-26T00:40:14.217Z,99.90
2018-09-26T00:42:42.793Z,99.90
2018-09-26T00:45:11.403Z,99.90
2018-09-26T00:47:40.057Z,99.90
2018-09-26T00:50:08.680Z,99.90
2018-09-26T00:52:37.264Z,99.90
2018-09-26T00:55:06.187Z,99.90
2018-09-26T00:57:34.883Z,99.90
2018-09-26T01:00:03.571Z,99.90
2018-09-26T01:02:32.181Z,99.90
2018-09-26T01:05:00.790Z,99.90
2018-09-26T01:07:29.374Z,99.90
2018-09-26T01:09:58.055Z,99.90
2018-09-26T01:12:26.664Z,99.90
2018-09-26T01:14:55.299Z,99.90
2018-09-26T01:17:23.907Z,99.90
2018-09-26T01:19:52.518Z,99.90
2018-09-26T01:22:21.146Z,99.90
2018-09-26T01:24:49.757Z,99.90
2018-09-26T01:27:18.344Z,99.90
2018-09-26T01:29:46.941Z,99.90
2018-09-26T01:32:15.586Z,99.90
2018-09-26T01:34:44.146Z,99.90
2018-09-26T01:37:12.779Z,99.90
2018-09-26T01:39:41.416Z,99.90
2018-09-26T01:42:10.059Z,99.90
2018-09-26T01:44:38.643Z,99.90
2018-09-26T01:47:07.254Z,99.90
2018-09-26T01:49:35.845Z,99.90
2018-09-26T01:52:04.484Z,99.90
2018-09-26T01:54:33.100Z,99.90
2018-09-26T01:57:01.744Z,99.90
2018-09-26T01:59:30.371Z,99.90
2018-09-26T02:01:58.994Z,99.90
2018-09-26T02:04:27.602Z,99.90
2018-09-26T02:06:56.192Z,99.90
2018-09-26T02:09:24.804Z,99.90
2018-09-26T02:11:53.430Z,99.90
2018-09-26T02:14:22.016Z,99.90
2018-09-26T02:16:50.662Z,99.90
2018-09-26T02:19:19.258Z,99.90
2018-09-26T02:21:47.842Z,99.90
2018-09-26T02:24:16.459Z,99.90
2018-09-26T02:26:45.058Z,99.90
2018-09-26T02:29:13.660Z,99.90
2018-09-26T02:31:42.264Z,99.90
2018-09-26T02:34:11.037Z,99.90
2018-09-26T02:36:39.755Z,99.90
2018-09-26T02:39:08.786Z,99.90
2018-09-26T02:41:38.516Z,99.90
2018-09-26T02:44:07.259Z,99.90
2018-09-26T02:46:35.815Z,99.90
2018-09-26T02:49:07.218Z,99.90
2018-09-26T02:51:37.430Z,99.90
2018-09-26T02:54:06.781Z,99.90
2018-09-26T02:56:35.389Z,99.90
2018-09-26T02:59:04.113Z,99.90
2018-09-26T03:01:32.695Z,99.90
2018-09-26T03:04:01.354Z,99.90
2018-09-26T03:06:29.927Z,99.90
2018-09-26T03:08:58.550Z,99.90
2018-09-26T03:11:27.142Z,99.90
2018-09-26T03:13:55.755Z,99.90
2018-09-26T03:16:24.335Z,99.90
2018-09-26T03:18:52.974Z,99.90
2018-09-26T03:21:21.572Z,99.90
2018-09-26T03:23:50.162Z,99.90
2018-09-26T03:26:18.774Z,99.90
2018-09-26T03:28:47.369Z,99.90
2018-09-26T03:31:15.988Z,99.90
2018-09-26T03:33:44.603Z,99.90
2018-09-26T03:36:13.189Z,99.90
2018-09-26T03:38:41.792Z,99.90
2018-09-26T03:41:10.398Z,99.90
2018-09-26T03:43:38.963Z,99.90
2018-09-26T03:46:07.581Z,99.90
2018-09-26T03:48:36.268Z,99.90
2018-09-26T03:51:04.935Z,99.90
2018-09-26T03:53:33.557Z,99.90
2018-09-26T03:56:02.158Z,99.90
2018-09-26T03:58:30.729Z,99.90
2018-09-26T04:00:59.335Z,99.90
2018-09-26T04:03:28.030Z,99.90
2018-09-26T04:05:56.583Z,99.90
2018-09-26T04:08:25.111Z,99.90
2018-09-26T04:10:54.597Z,99.90
2018-09-26T04:13:23.113Z,99.90
2018-09-26T04:15:53.707Z,99.90
2018-09-26T04:18:23.902Z,99.90
2018-09-26T04:20:53.008Z,99.90
2018-09-26T04:23:21.651Z,99.90
2018-09-26T04:25:50.327Z,99.90
2018-09-26T04:28:18.880Z,99.90
2018-09-26T04:30:47.404Z,99.90
2018-09-26T04:33:16.177Z,99.90
2018-09-26T04:35:44.714Z,99.90
2018-09-26T04:38:13.323Z,99.90
2018-09-26T04:40:41.908Z,99.90
2018-09-26T04:43:10.462Z,99.90
2018-09-26T04:45:39.046Z,99.90
2018-09-26T04:48:07.614Z,99.90
2018-09-26T04:50:36.290Z,99.90
2018-09-26T04:53:04.968Z,99.90
2018-09-26T04:55:33.560Z,99.90
2018-09-26T04:58:02.245Z,99.90
2018-09-26T05:00:30.691Z,99.90
2018-09-26T05:02:59.310Z,99.90
2018-09-26T05:05:27.903Z,99.90
2018-09-26T05:07:57.653Z,99.90
2018-09-26T05:10:26.308Z,99.90
2018-09-26T05:12:54.998Z,99.90
2018-09-26T05:15:23.652Z,99.90
2018-09-26T05:17:52.303Z,99.90
2018-09-26T05:20:21.083Z,99.90
2018-09-26T05:22:49.743Z,99.90
2018-09-26T05:25:18.374Z,99.90
2018-09-26T05:27:46.979Z,99.90
2018-09-26T05:30:15.628Z,99.90
2018-09-26T05:32:44.260Z,99.90
2018-09-26T05:35:12.917Z,99.90
2018-09-26T05:37:41.632Z,99.90
2018-09-26T05:40:10.283Z,99.90
2018-09-26T05:42:38.915Z,99.90
2018-09-26T05:45:07.595Z,99.90
2018-09-26T05:47:36.223Z,99.90
2018-09-26T05:50:04.996Z,99.90
2018-09-26T05:52:33.583Z,99.90
2018-09-26T05:55:02.191Z,99.90
2018-09-26T05:57:30.795Z,99.90
2018-09-26T05:59:59.413Z,99.90
2018-09-26T06:02:28.103Z,99.90
2018-09-26T06:04:57.824Z,99.90
2018-09-26T06:07:26.436Z,99.90
2018-09-26T06:09:55.094Z,99.90
2018-09-26T06:12:23.675Z,99.90
2018-09-26T06:14:52.324Z,99.90
2018-09-26T06:17:20.992Z,99.90
2018-09-26T06:19:49.659Z,99.90
2018-09-26T06:22:18.243Z,99.90
2018-09-26T06:24:46.938Z,99.90
2018-09-26T06:27:15.533Z,99.90
2018-09-26T06:29:44.147Z,99.90
2018-09-26T06:32:12.750Z,99.90
2018-09-26T06:34:41.383Z,99.90
2018-09-26T06:37:10.152Z,99.90
2018-09-26T06:39:38.745Z,99.90
2018-09-26T06:42:07.351Z,99.90
2018-09-26T06:44:36.001Z,99.90
2018-09-26T06:47:04.710Z,99.90
2018-09-26T06:49:33.355Z,99.90
2018-09-26T06:52:02.051Z,99.90
2018-09-26T06:54:30.687Z,99.90
2018-09-26T06:56:59.348Z,99.90
2018-09-26T06:59:27.967Z,99.90
2018-09-26T07:01:56.581Z,99.90
2018-09-26T07:04:25.245Z,99.90
2018-09-26T07:06:53.943Z,99.90
2018-09-26T07:09:22.588Z,99.90
2018-09-26T07:11:51.187Z,99.90
2018-09-26T07:14:19.825Z,99.90
2018-09-26T07:16:48.450Z,99.90
2018-09-26T07:19:17.112Z,99.90
2018-09-26T07:21:45.796Z,99.90
2018-09-26T07:24:14.423Z,99.90
2018-09-26T07:26:43.037Z,99.90
2018-09-26T07:29:11.645Z,99.90
2018-09-26T07:31:40.261Z,99.90
2018-09-26T07:34:08.908Z,99.90
2018-09-26T07:36:37.570Z,99.90
2018-09-26T07:39:09.139Z,99.90
2018-09-26T07:41:38.130Z,99.90
2018-09-26T07:44:07.146Z,99.90
2018-09-26T07:46:35.996Z,99.90
2018-09-26T07:49:04.627Z,99.90
2018-09-26T07:51:33.219Z,99.90
2018-09-26T07:54:01.820Z,99.90
2018-09-26T07:56:30.420Z,99.90
2018-09-26T07:58:59.098Z,99.90
2018-09-26T08:01:27.699Z,99.90
2018-09-26T08:03:56.387Z,99.90
2018-09-26T08:06:24.995Z,99.90
2018-09-26T08:08:53.658Z,99.90
2018-09-26T08:11:22.367Z,99.90
2018-09-26T08:13:51.098Z,99.90
2018-09-26T08:16:19.711Z,99.90
2018-09-26T08:18:48.312Z,99.90
2018-09-26T08:21:16.914Z,99.90
2018-09-26T08:23:45.607Z,99.90
2018-09-26T08:26:14.244Z,99.90
2018-09-26T08:28:42.874Z,99.90
2018-09-26T08:31:11.557Z,99.90
2018-09-26T08:33:40.226Z,99.90
2018-09-26T08:36:08.899Z,99.90
2018-09-26T08:38:37.901Z,99.90
2018-09-26T08:41:06.604Z,99.90
2018-09-26T08:43:35.223Z,99.90
2018-09-26T08:46:03.863Z,99.90
2018-09-26T08:48:32.486Z,99.90
2018-09-26T08:51:01.133Z,99.90
2018-09-26T08:53:29.821Z,99.90
2018-09-26T08:55:58.485Z,99.90
2018-09-26T08:58:27.201Z,99.90
2018-09-26T09:00:55.830Z,99.90
2018-09-26T09:03:24.449Z,99.90
2018-09-26T09:05:53.281Z,99.90
2018-09-26T09:08:21.873Z,99.90
2018-09-26T09:10:50.535Z,99.90
2018-09-26T09:13:19.227Z,99.20
2018-09-26T09:15:47.872Z,98.80
2018-09-26T09:18:16.556Z,98.60
2018-09-26T09:20:45.172Z,98.30
2018-09-26T09:23:13.795Z,99.40
2018-09-26T09:25:42.622Z,99.80
2018-09-26T09:28:11.252Z,99.70
2018-09-26T09:30:39.901Z,97.80
2018-09-26T09:33:08.567Z,98.00
2018-09-26T09:35:37.216Z,98.10
2018-09-26T09:38:06.143Z,96.70
2018-09-26T09:40:34.753Z,97.60
2018-09-26T09:43:03.364Z,97.70
2018-09-26T09:45:32.003Z,96.90
2018-09-26T09:48:00.638Z,97.70
2018-09-26T09:50:29.256Z,97.20
2018-09-26T09:52:57.912Z,96.60
2018-09-26T09:55:26.542Z,95.80
2018-09-26T09:57:55.170Z,96.00
2018-09-26T10:00:28.007Z,94.20
2018-09-26T10:02:56.688Z,94.70
2018-09-26T10:05:25.164Z,96.70
2018-09-26T10:07:53.743Z,93.90
2018-09-26T10:10:22.389Z,93.20
2018-09-26T10:12:51.102Z,93.60
2018-09-26T10:15:19.791Z,94.20
2018-09-26T10:17:48.542Z,95.50
2018-09-26T10:20:17.253Z,96.00
2018-09-26T10:22:45.859Z,95.40
2018-09-26T10:25:14.495Z,94.00
2018-09-26T10:27:43.110Z,93.20
2018-09-26T10:30:11.754Z,94.40
2018-09-26T10:32:40.464Z,93.80
2018-09-26T10:35:09.102Z,92.30
2018-09-26T10:37:37.708Z,93.10
2018-09-26T10:40:06.617Z,93.20
2018-09-26T10:42:35.238Z,92.90
2018-09-26T10:45:04.036Z,93.80
2018-09-26T10:47:32.632Z,92.80
2018-09-26T10:50:01.328Z,92.80
2018-09-26T10:52:30.126Z,93.90
2018-09-26T10:54:58.783Z,92.30
2018-09-26T10:57:27.397Z,91.30
2018-09-26T10:59:56.091Z,92.60
2018-09-26T11:02:24.793Z,91.60
2018-09-26T11:04:53.333Z,91.80
2018-09-26T11:07:22.450Z,92.80
2018-09-26T11:09:51.156Z,92.50
2018-09-26T11:12:19.712Z,93.00
2018-09-26T11:14:48.289Z,93.80
2018-09-26T11:17:16.839Z,93.40
2018-09-26T11:19:45.403Z,93.20
2018-09-26T11:22:14.037Z,92.70
2018-09-26T11:24:42.626Z,92.30
2018-09-26T11:27:11.227Z,91.40
2018-09-26T11:29:39.795Z,92.20
2018-09-26T11:32:08.509Z,92.00
2018-09-26T11:34:37.138Z,90.80
2018-09-26T11:37:05.941Z,90.60
2018-09-26T11:39:34.546Z,92.20
2018-09-26T11:42:03.151Z,91.50
2018-09-26T11:44:31.769Z,93.20
2018-09-26T11:47:00.383Z,91.90
2018-09-26T11:49:28.943Z,92.50
2018-09-26T11:51:57.560Z,90.90
2018-09-26T11:54:26.219Z,92.00
2018-09-26T11:56:54.906Z,91.70
2018-09-26T11:59:23.447Z,91.90
2018-09-26T12:01:52.038Z,90.60
2018-09-26T12:04:20.749Z,91.70
2018-09-26T12:06:49.399Z,90.60
2018-09-26T12:09:18.025Z,90.80
2018-09-26T12:11:46.778Z,90.80
2018-09-26T12:14:15.443Z,90.10
2018-09-26T12:16:44.042Z,89.30
2018-09-26T12:19:12.722Z,90.90
2018-09-26T12:21:41.429Z,91.10
2018-09-26T12:24:10.080Z,90.80
2018-09-26T12:26:38.664Z,89.60
2018-09-26T12:29:08.384Z,89.00
2018-09-26T12:31:37.024Z,90.90
2018-09-26T12:34:05.895Z,91.10
2018-09-26T12:36:34.514Z,90.00
2018-09-26T12:39:04.510Z,90.90
2018-09-26T12:41:33.211Z,88.80
2018-09-26T12:44:01.946Z,90.60
2018-09-26T12:46:30.798Z,88.60
2018-09-26T12:48:59.440Z,90.80
2018-09-26T12:51:28.148Z,89.10
2018-09-26T12:53:56.939Z,90.80
2018-09-26T12:56:25.448Z,90.30
2018-09-26T12:58:54.124Z,88.90
2018-09-26T13:01:22.735Z,88.10
2018-09-26T13:03:51.331Z,87.80
2018-09-26T13:06:19.963Z,90.20
2018-09-26T13:08:48.556Z,90.20
2018-09-26T13:11:17.186Z,90.10
2018-09-26T13:13:45.799Z,89.50
2018-09-26T13:16:14.459Z,87.60
2018-09-26T13:18:42.968Z,87.70
2018-09-26T13:21:11.611Z,87.30
2018-09-26T13:23:40.247Z,87.40
2018-09-26T13:26:09.047Z,84.20
2018-09-26T13:28:39.263Z,85.70
2018-09-26T13:31:07.954Z,86.20
2018-09-26T13:33:37.575Z,88.20
2018-09-26T13:36:06.173Z,88.50
2018-09-26T13:38:34.700Z,87.70
2018-09-26T13:41:03.288Z,85.90
2018-09-26T13:43:31.826Z,85.20
2018-09-26T13:46:00.423Z,86.90
2018-09-26T13:48:28.981Z,86.00
2018-09-26T13:50:57.559Z,86.30
2018-09-26T13:53:26.106Z,85.90
2018-09-26T13:55:54.644Z,85.50
2018-09-26T13:58:23.219Z,83.00
2018-09-26T14:00:51.785Z,84.10
2018-09-26T14:03:20.379Z,84.90
2018-09-26T14:05:48.948Z,84.80
2018-09-26T14:08:17.699Z,84.00
2018-09-26T14:10:46.466Z,83.90
2018-09-26T14:13:15.135Z,84.00
2018-09-26T14:15:43.675Z,83.70
2018-09-26T14:18:12.302Z,84.20
2018-09-26T14:20:57.373Z,82.20
2018-09-26T14:23:26.215Z,83.00
2018-09-26T14:25:54.898Z,83.90
2018-09-26T14:28:23.706Z,79.40
2018-09-26T14:30:52.398Z,81.80
2018-09-26T14:33:21.158Z,80.40
2018-09-26T14:35:49.844Z,85.40
2018-09-26T14:38:18.579Z,83.70
2018-09-26T14:40:47.305Z,83.00
2018-09-26T14:43:16.694Z,81.60
2018-09-26T14:45:45.729Z,84.30
2018-09-26T14:48:14.403Z,84.30
2018-09-26T14:50:43.088Z,80.70
2018-09-26T14:53:11.881Z,84.70
2018-09-26T14:55:40.537Z,82.50
2018-09-26T14:58:09.328Z,85.10
2018-09-26T15:00:38.015Z,86.50
2018-09-26T15:03:07.124Z,86.70
2018-09-26T15:05:35.810Z,85.90
2018-09-26T15:08:04.488Z,83.70
2018-09-26T15:10:33.159Z,83.30
2018-09-26T15:13:01.816Z,86.20
2018-09-26T15:15:30.535Z,86.40
2018-09-26T15:17:59.226Z,86.50
2018-09-26T15:20:27.926Z,84.00
2018-09-26T15:22:56.574Z,88.70
2018-09-26T15:25:25.292Z,85.50
2018-09-26T15:27:54.021Z,88.30
2018-09-26T15:30:22.751Z,84.90
2018-09-26T15:32:51.529Z,87.40
2018-09-26T15:35:20.312Z,87.10
2018-09-26T15:37:49.218Z,86.50
2018-09-26T15:40:18.129Z,90.30
2018-09-26T15:42:46.788Z,89.50
2018-09-26T15:45:15.501Z,90.20
2018-09-26T15:47:44.170Z,88.90
2018-09-26T15:50:12.893Z,90.10
2018-09-26T15:52:41.589Z,87.30
2018-09-26T15:55:10.453Z,90.60
2018-09-26T15:57:39.131Z,90.50
2018-09-26T16:00:07.963Z,90.10
2018-09-26T16:02:36.585Z,92.10
2018-09-26T16:05:05.748Z,90.20
2018-09-26T16:07:34.301Z,90.40
2018-09-26T16:10:02.931Z,91.30
2018-09-26T16:12:31.690Z,93.60
2018-09-26T16:15:00.286Z,90.70
2018-09-26T16:17:28.905Z,88.60
2018-09-26T16:19:57.497Z,86.30
2018-09-26T16:22:26.300Z,86.10
2018-09-26T16:24:54.900Z,91.10
2018-09-26T16:27:23.455Z,90.30
2018-09-26T16:29:52.049Z,90.60
2018-09-26T16:32:20.721Z,91.90
2018-09-26T16:34:49.165Z,92.10
2018-09-26T16:37:17.778Z,93.00
2018-09-26T16:39:46.352Z,94.10
2018-09-26T16:42:14.971Z,94.70
2018-09-26T16:44:43.477Z,95.30
2018-09-26T16:47:12.080Z,95.20
2018-09-26T16:49:40.656Z,95.20
2018-09-26T16:52:09.252Z,95.30
2018-09-26T16:54:37.866Z,95.30
2018-09-26T16:57:06.652Z,95.80
2018-09-26T16:59:35.227Z,96.80
2018-09-26T17:02:03.813Z,96.70
2018-09-26T17:04:32.442Z,96.80
2018-09-26T17:07:01.034Z,97.20
2018-09-26T17:09:29.590Z,97.80
2018-09-26T17:11:58.159Z,98.40
2018-09-26T17:14:26.795Z,98.70
2018-09-26T17:16:55.362Z,99.10
2018-09-26T17:26:21.309Z,99.30
2018-09-26T17:28:49.904Z,99.70
2018-09-26T17:31:18.884Z,99.90
2018-09-26T17:33:47.490Z,99.90
2018-09-26T17:36:16.092Z,99.90
2018-09-26T17:38:44.646Z,99.90
2018-09-26T17:41:13.202Z,99.90
2018-09-26T17:43:41.764Z,99.90
2018-09-26T17:46:10.395Z,99.90
2018-09-26T17:48:39.014Z,99.90
2018-09-26T17:51:07.657Z,99.90
2018-09-26T17:53:36.274Z,99.90
2018-09-26T17:56:04.939Z,99.90
2018-09-26T17:58:33.466Z,99.90
2018-09-26T18:01:01.995Z,99.90
2018-09-26T18:03:30.592Z,99.90
2018-09-26T18:05:59.162Z,99.90
2018-09-26T18:08:27.736Z,99.90
2018-09-26T18:10:56.419Z,99.90
2018-09-26T18:13:25.115Z,99.90
2018-09-26T18:15:53.805Z,99.90
2018-09-26T18:18:22.487Z,99.90
2018-09-26T18:20:51.132Z,99.90
2018-09-26T18:23:19.886Z,99.90
2018-09-26T18:25:48.518Z,99.90
2018-09-26T18:28:17.186Z,99.90
2018-09-26T18:30:45.794Z,99.90
2018-09-26T18:33:14.444Z,99.90
2018-09-26T18:35:43.085Z,99.90
2018-09-26T18:38:11.695Z,99.90
2018-09-26T18:40:40.382Z,99.90
2018-09-26T18:43:09.032Z,99.90
2018-09-26T18:45:37.751Z,99.90
2018-09-26T18:48:06.419Z,99.90
2018-09-26T18:50:35.070Z,99.90
2018-09-26T18:53:03.694Z,99.90
2018-09-26T18:55:32.371Z,99.90
2018-09-26T18:58:01.143Z,99.90
2018-09-26T19:00:29.740Z,99.90
2018-09-26T19:02:58.407Z,99.90
2018-09-26T19:05:27.065Z,99.90
2018-09-26T19:07:56.065Z,99.90
2018-09-26T19:10:24.681Z,99.90
2018-09-26T19:12:53.283Z,99.90
2018-09-26T19:15:21.932Z,99.90
2018-09-26T19:17:50.536Z,99.90
2018-09-26T19:20:19.159Z,99.90
2018-09-26T19:22:47.959Z,99.90
2018-09-26T19:25:16.520Z,99.90
2018-09-26T19:27:45.179Z,99.90
2018-09-26T19:30:14.530Z,99.90
2018-09-26T19:32:43.144Z,99.90
2018-09-26T19:35:11.827Z,99.90
2018-09-26T19:37:40.448Z,99.90
2018-09-26T19:40:09.300Z,99.90
2018-09-26T19:42:37.882Z,99.90
2018-09-26T19:45:06.667Z,99.90
2018-09-26T19:47:35.351Z,99.90
2018-09-26T19:50:04.136Z,99.90
2018-09-26T19:52:32.904Z,99.90
2018-09-26T19:55:01.530Z,99.90
2018-09-26T19:57:30.192Z,99.90
2018-09-26T19:59:58.795Z,99.90
2018-09-26T20:02:27.402Z,99.90
2018-09-26T20:04:56.008Z,99.90
2018-09-26T20:07:24.539Z,99.90
2018-09-26T20:09:53.067Z,99.90
2018-09-26T20:12:21.783Z,99.90
2018-09-26T20:14:50.384Z,99.90
2018-09-26T20:17:20.133Z,99.90
2018-09-26T20:19:48.743Z,99.90
2018-09-26T20:22:17.304Z,99.90
2018-09-26T20:24:45.844Z,99.90
2018-09-26T20:27:14.397Z,99.90
2018-09-26T20:29:43.124Z,99.90
2018-09-26T20:32:11.579Z,99.90
2018-09-26T20:34:40.112Z,99.90
2018-09-26T20:37:08.836Z,99.90
2018-09-26T20:39:37.355Z,99.90
2018-09-26T20:42:05.939Z,99.90
2018-09-26T20:44:34.535Z,99.90
2018-09-26T20:47:03.184Z,99.90
2018-09-26T20:49:31.719Z,99.90
2018-09-26T20:52:00.335Z,99.90
2018-09-26T20:54:28.917Z,99.90
2018-09-26T20:56:57.420Z,99.90
2018-09-26T20:59:25.958Z,99.90
2018-09-26T21:01:54.512Z,99.90
2018-09-26T21:04:23.207Z,99.90
2018-09-26T21:06:51.838Z,99.90
2018-09-26T21:09:20.444Z,99.90
2018-09-26T21:11:49.058Z,99.90
2018-09-26T21:14:17.583Z,99.90
2018-09-26T21:16:46.130Z,99.90
2018-09-26T21:19:14.622Z,99.90
2018-09-26T21:21:43.204Z,99.90
2018-09-26T21:24:11.720Z,99.90
2018-09-26T21:26:40.255Z,99.90
2018-09-26T21:29:08.863Z,99.90
2018-09-26T21:31:37.492Z,99.90
2018-09-26T21:34:06.007Z,99.90
2018-09-26T21:36:34.572Z,99.90
2018-09-26T21:39:03.330Z,99.90
2018-09-26T21:41:31.860Z,99.90
2018-09-26T21:44:00.459Z,99.90
2018-09-26T21:46:29.023Z,99.90
2018-09-26T21:48:57.532Z,99.90
2018-09-26T21:51:26.059Z,99.90
2018-09-26T21:53:54.559Z,99.90
2018-09-26T21:56:23.110Z,99.90
2018-09-26T21:58:51.660Z,99.90
2018-09-26T22:01:20.202Z,99.90
2018-09-26T22:03:48.752Z,99.90
2018-09-26T22:06:17.272Z,99.90
2018-09-26T22:08:45.766Z,99.90
2018-09-26T22:11:14.314Z,99.90
2018-09-26T22:13:42.843Z,99.90
2018-09-26T22:16:11.387Z,99.90
2018-09-26T22:18:39.948Z,99.90
2018-09-26T22:21:08.455Z,99.90
2018-09-26T22:23:36.990Z,99.90
2018-09-26T22:26:05.566Z,99.90
2018-09-26T22:28:34.156Z,99.90
2018-09-26T22:31:02.661Z,99.90
2018-09-26T22:33:31.439Z,99.90
2018-09-26T22:35:59.963Z,99.90
2018-09-26T22:38:28.503Z,99.90
2018-09-26T22:40:57.056Z,99.90
2018-09-26T22:43:25.586Z,99.90
2018-09-26T22:45:54.095Z,99.90
2018-09-26T22:48:22.606Z,99.90
2018-09-26T22:50:51.234Z,99.90
2018-09-26T22:53:19.766Z,99.90
2018-09-26T22:55:48.264Z,99.90
2018-09-26T22:58:16.776Z,99.90
2018-09-26T23:00:45.322Z,99.90
2018-09-26T23:03:13.946Z,99.90
2018-09-26T23:05:42.502Z,99.90
2018-09-26T23:08:11.075Z,99.90
2018-09-26T23:10:39.664Z,99.90
2018-09-26T23:13:08.303Z,99.90
2018-09-26T23:15:36.883Z,99.90
2018-09-26T23:18:05.479Z,99.90
2018-09-26T23:20:34.206Z,99.90
2018-09-26T23:23:02.769Z,99.90
2018-09-26T23:25:31.426Z,99.90
2018-09-26T23:27:59.967Z,99.90
2018-09-26T23:30:28.647Z,99.90
2018-09-26T23:32:57.228Z,99.90
2018-09-26T23:35:25.895Z,99.90
2018-09-26T23:37:54.442Z,99.90
2018-09-26T23:40:23.043Z,99.90
2018-09-26T23:42:51.675Z,99.90
2018-09-26T23:45:20.308Z,99.90
2018-09-26T23:47:48.866Z,99.90
2018-09-26T23:50:17.559Z,99.90
2018-09-26T23:52:46.136Z,99.90
2018-09-26T23:55:14.752Z,99.90
2018-09-26T23:57:43.362Z,99.90
